createdAt,value
2022-12-01T00:00:12.920Z,73.73
2022-12-01T00:03:35.841Z,73.55
2022-12-01T00:06:38.704Z,71.76
2022-12-01T00:09:59.412Z,74.02
2022-12-01T00:13:04.943Z,73.11
2022-12-01T00:16:16.104Z,71.60
2022-12-01T00:19:19.031Z,65.63
2022-12-01T00:22:21.106Z,67.53
2022-12-01T00:25:23.829Z,70.46
2022-12-01T00:28:25.978Z,70.96
2022-12-01T00:31:28.762Z,70.88
2022-12-01T00:34:31.127Z,71.94
2022-12-01T00:37:36.716Z,73.53
2022-12-01T00:40:39.849Z,75.72
2022-12-01T00:43:42.654Z,74.46
2022-12-01T00:46:44.735Z,72.23
2022-12-01T00:49:47.879Z,72.13
2022-12-01T00:52:50.026Z,72.03
2022-12-01T00:55:54.372Z,68.24
2022-12-01T00:58:56.974Z,67.07
2022-12-01T01:01:59.497Z,69.83
2022-12-01T01:05:01.525Z,69.00
2022-12-01T01:08:08.347Z,65.10
2022-12-01T01:11:10.815Z,65.18
2022-12-01T01:14:13.547Z,68.43
2022-12-01T01:17:15.465Z,70.17
2022-12-01T01:20:17.958Z,67.59
2022-12-01T01:23:20.178Z,68.69
2022-12-01T01:26:28.689Z,71.15
2022-12-01T01:29:31.243Z,71.19
2022-12-01T01:32:36.033Z,71.95
2022-12-01T01:35:38.439Z,72.64
2022-12-01T01:38:41.643Z,75.35
2022-12-01T01:41:43.656Z,72.28
2022-12-01T01:44:54.526Z,71.99
2022-12-01T01:47:59.966Z,72.85
2022-12-01T01:51:03.406Z,71.94
2022-12-01T01:54:15.987Z,72.00
2022-12-01T01:57:25.750Z,73.22
2022-12-01T02:00:28.080Z,70.20
2022-12-01T02:03:37.265Z,71.03
2022-12-01T02:06:39.874Z,67.69
2022-12-01T02:09:42.650Z,64.83
2022-12-01T02:13:18.733Z,63.48
2022-12-01T02:16:27.964Z,63.11
2022-12-01T02:20:24.198Z,62.80
2022-12-01T02:23:57.344Z,63.19
2022-12-01T02:27:09.543Z,63.09
2022-12-01T02:30:27.862Z,62.54
2022-12-01T02:33:38.977Z,62.59
2022-12-01T02:36:55.949Z,62.59
2022-12-01T02:40:15.489Z,65.64
2022-12-01T02:43:54.089Z,68.04
2022-12-01T02:47:15.744Z,66.98
2022-12-01T02:50:19.690Z,67.25
2022-12-01T02:53:22.879Z,67.75
2022-12-01T02:56:27.420Z,69.18
2022-12-01T02:59:29.441Z,67.16
2022-12-01T03:02:54.345Z,67.48
2022-12-01T03:06:08.718Z,68.34
2022-12-01T03:09:33.654Z,67.86
2022-12-01T03:12:50.251Z,65.04
2022-12-01T03:16:12.811Z,64.49
2022-12-01T03:19:27.195Z,64.06
2022-12-01T03:22:36.646Z,61.86
2022-12-01T03:25:42.234Z,63.14
2022-12-01T03:28:50.545Z,66.82
2022-12-01T03:31:59.383Z,67.95
2022-12-01T03:35:11.069Z,71.62
2022-12-01T03:38:19.054Z,67.96
2022-12-01T03:41:26.492Z,67.94
2022-12-01T03:44:42.069Z,67.31
2022-12-01T03:47:44.960Z,70.29
2022-12-01T03:50:57.019Z,66.16
2022-12-01T03:54:03.300Z,64.10
2022-12-01T03:57:11.200Z,63.05
2022-12-01T04:00:17.280Z,63.05
2022-12-01T04:03:24.844Z,62.79
2022-12-01T04:06:27.914Z,61.78
2022-12-01T04:09:30.208Z,61.20
2022-12-01T04:12:33.974Z,59.45
2022-12-01T04:16:03.517Z,66.88
2022-12-01T04:19:06.520Z,77.54
2022-12-01T04:22:08.589Z,70.10
2022-12-01T04:25:12.034Z,68.46
2022-12-01T04:28:14.414Z,72.92
2022-12-01T04:31:17.064Z,76.49
2022-12-01T04:34:19.155Z,77.07
2022-12-01T04:37:21.933Z,76.62
2022-12-01T04:40:24.323Z,73.09
2022-12-01T04:43:27.832Z,75.05
2022-12-01T04:46:31.269Z,74.04
2022-12-01T04:49:35.025Z,72.48
2022-12-01T04:52:38.415Z,71.94
2022-12-01T04:55:40.914Z,71.99
2022-12-01T04:58:43.322Z,72.60
2022-12-01T05:01:48.686Z,76.11
2022-12-01T05:04:50.983Z,74.45
2022-12-01T05:07:53.603Z,71.06
2022-12-01T05:10:57.183Z,68.46
2022-12-01T05:13:59.910Z,66.56
2022-12-01T05:17:02.638Z,66.15
2022-12-01T05:20:26.637Z,63.62
2022-12-01T05:23:31.690Z,64.63
2022-12-01T05:26:34.539Z,66.66
2022-12-01T05:29:36.753Z,71.71
2022-12-01T05:32:39.260Z,70.85
2022-12-01T05:35:41.658Z,68.96
2022-12-01T05:38:46.009Z,67.28
2022-12-01T05:41:49.077Z,66.28
2022-12-01T05:44:52.052Z,65.73
2022-12-01T05:47:59.071Z,63.37
2022-12-01T05:51:11.303Z,66.91
2022-12-01T05:54:13.514Z,67.08
2022-12-01T05:57:16.864Z,65.28
2022-12-01T06:00:19.373Z,66.15
2022-12-01T06:03:23.532Z,67.74
2022-12-01T06:06:26.206Z,69.21
2022-12-01T06:09:28.629Z,72.10
2022-12-01T06:12:30.939Z,69.34
2022-12-01T06:15:33.328Z,72.53
2022-12-01T06:18:38.049Z,69.80
2022-12-01T06:21:42.985Z,67.39
2022-12-01T06:24:47.509Z,66.77
2022-12-01T06:27:50.225Z,67.64
2022-12-01T06:30:55.424Z,69.41
2022-12-01T06:34:01.012Z,68.57
2022-12-01T06:37:03.295Z,66.25
2022-12-01T06:40:07.086Z,67.02
2022-12-01T06:43:09.598Z,69.34
2022-12-01T06:46:12.571Z,70.80
2022-12-01T06:49:15.058Z,72.26
2022-12-01T06:52:17.500Z,72.97
2022-12-01T06:55:20.288Z,73.78
2022-12-01T06:58:22.721Z,73.47
2022-12-01T07:01:25.629Z,70.13
2022-12-01T07:04:28.279Z,71.13
2022-12-01T07:07:31.311Z,70.03
2022-12-01T07:10:33.838Z,67.20
2022-12-01T07:13:37.502Z,67.93
2022-12-01T07:16:40.019Z,68.48
2022-12-01T07:19:42.295Z,66.47
2022-12-01T07:22:45.002Z,67.13
2022-12-01T07:25:47.607Z,66.41
2022-12-01T07:28:50.807Z,65.77
2022-12-01T07:31:53.817Z,65.60
2022-12-01T07:34:56.256Z,65.64
2022-12-01T07:37:58.830Z,65.07
2022-12-01T07:41:08.572Z,64.34
2022-12-01T07:44:12.190Z,63.23
2022-12-01T07:47:14.970Z,63.24
2022-12-01T07:50:17.131Z,63.89
2022-12-01T07:53:19.677Z,66.63
2022-12-01T07:56:23.343Z,70.88
2022-12-01T07:59:25.795Z,69.24
2022-12-01T08:02:28.289Z,69.52
2022-12-01T08:05:30.859Z,66.31
2022-12-01T08:08:35.127Z,65.60
2022-12-01T08:11:37.505Z,67.02
2022-12-01T08:14:40.890Z,65.47
2022-12-01T08:17:43.617Z,65.22
2022-12-01T08:20:46.052Z,64.35
2022-12-01T08:23:52.409Z,63.69
2022-12-01T08:26:54.635Z,63.27
2022-12-01T08:29:57.164Z,63.57
2022-12-01T08:33:00.602Z,63.51
2022-12-01T08:36:05.382Z,60.88
2022-12-01T08:39:08.654Z,62.73
2022-12-01T08:42:11.724Z,65.64
2022-12-01T08:45:15.701Z,70.78
2022-12-01T08:48:21.720Z,66.62
2022-12-01T08:51:25.074Z,69.22
2022-12-01T08:54:29.420Z,66.85
2022-12-01T08:57:33.175Z,66.73
2022-12-01T09:00:35.762Z,67.56
2022-12-01T09:03:41.148Z,65.45
2022-12-01T09:06:51.203Z,67.17
2022-12-01T09:09:53.754Z,65.89
2022-12-01T09:12:58.046Z,67.38
2022-12-01T09:16:09.003Z,66.21
2022-12-01T09:19:13.432Z,67.93
2022-12-01T09:22:16.249Z,67.91
2022-12-01T09:25:19.070Z,68.28
2022-12-01T09:28:21.726Z,67.37
2022-12-01T09:31:24.669Z,71.12
2022-12-01T09:34:29.163Z,69.50
2022-12-01T09:37:32.759Z,69.99
2022-12-01T09:40:41.126Z,69.06
2022-12-01T09:43:52.237Z,68.74
2022-12-01T09:47:03.510Z,71.16
2022-12-01T09:50:09.880Z,72.25
2022-12-01T09:53:21.506Z,71.43
2022-12-01T09:56:26.329Z,69.91
2022-12-01T09:59:34.453Z,71.64
2022-12-01T10:02:42.331Z,72.31
2022-12-01T10:06:25.152Z,73.70
2022-12-01T10:09:34.621Z,71.49
2022-12-01T10:12:37.240Z,69.12
2022-12-01T10:16:00.864Z,65.56
2022-12-01T10:19:18.272Z,68.51
2022-12-01T10:22:32.930Z,68.93
2022-12-01T10:25:53.376Z,67.02
2022-12-01T10:29:11.420Z,63.71
2022-12-01T10:32:25.875Z,69.17
2022-12-01T10:35:36.304Z,67.51
2022-12-01T10:38:39.378Z,69.13
2022-12-01T10:41:42.151Z,68.18
2022-12-01T10:44:44.951Z,70.47
2022-12-01T10:48:11.244Z,72.86
2022-12-01T10:51:17.583Z,66.95
2022-12-01T10:54:21.438Z,70.89
2022-12-01T10:57:23.900Z,70.55
2022-12-01T11:00:58.607Z,67.43
2022-12-01T11:04:02.736Z,66.72
2022-12-01T11:07:05.342Z,65.37
2022-12-01T11:10:17.002Z,60.57
2022-12-01T11:13:31.352Z,67.30
2022-12-01T11:16:44.296Z,64.14
2022-12-01T11:19:46.923Z,67.76
2022-12-01T11:22:49.128Z,65.11
2022-12-01T11:26:13.899Z,66.55
2022-12-01T11:29:39.012Z,67.12
2022-12-01T11:32:56.180Z,66.24
2022-12-01T11:35:58.788Z,64.90
2022-12-01T11:39:08.092Z,62.43
2022-12-01T11:42:13.908Z,63.30
2022-12-01T11:45:22.552Z,62.55
2022-12-01T11:48:36.871Z,60.55
2022-12-01T11:51:39.603Z,61.67
2022-12-01T11:54:56.032Z,61.08
2022-12-01T11:58:04.165Z,60.34
2022-12-01T12:01:22.170Z,60.45
2022-12-01T12:04:37.509Z,59.78
2022-12-01T12:07:58.498Z,58.95
2022-12-01T12:11:12.292Z,61.06
2022-12-01T12:14:29.453Z,59.94
2022-12-01T12:18:02.103Z,60.47
2022-12-01T12:21:33.635Z,60.36
2022-12-01T12:25:21.726Z,60.91
2022-12-01T12:28:47.088Z,60.86
2022-12-01T12:32:10.522Z,59.90
2022-12-01T12:35:39.509Z,59.48
2022-12-01T12:39:13.568Z,60.13
2022-12-01T12:42:21.801Z,59.15
2022-12-01T12:46:00.894Z,59.54
2022-12-01T12:49:22.173Z,59.63
2022-12-01T12:52:34.357Z,59.42
2022-12-01T12:55:44.756Z,58.56
2022-12-01T12:58:55.852Z,59.41
2022-12-01T13:02:21.009Z,59.44
2022-12-01T13:05:26.635Z,59.42
2022-12-01T13:08:44.366Z,58.37
2022-12-01T13:12:01.637Z,58.74
2022-12-01T13:15:14.321Z,58.20
2022-12-01T13:18:45.881Z,60.26
2022-12-01T13:21:50.856Z,57.24
2022-12-01T13:24:54.190Z,62.77
2022-12-01T13:27:59.250Z,59.05
2022-12-01T13:31:14.162Z,61.73
2022-12-01T13:34:36.801Z,58.32
2022-12-01T13:37:39.437Z,59.96
2022-12-01T13:40:41.725Z,61.25
2022-12-01T13:44:01.669Z,60.73
2022-12-01T13:47:05.921Z,60.25
2022-12-01T13:50:39.099Z,59.90
2022-12-01T13:54:25.848Z,59.56
2022-12-01T13:57:32.047Z,59.33
2022-12-01T14:00:35.251Z,59.26
2022-12-01T14:03:40.241Z,59.09
2022-12-01T14:06:51.479Z,59.12
2022-12-01T14:09:58.344Z,59.03
2022-12-01T14:13:05.308Z,58.94
2022-12-01T14:16:08.759Z,58.89
2022-12-01T14:19:29.740Z,58.82
2022-12-01T14:22:32.446Z,58.60
2022-12-01T14:25:34.734Z,58.60
2022-12-01T14:28:56.253Z,58.71
2022-12-01T14:32:02.066Z,58.56
2022-12-01T14:35:12.114Z,58.50
2022-12-01T14:38:14.863Z,58.64
2022-12-01T14:41:27.321Z,58.61
2022-12-01T14:44:36.039Z,58.59
2022-12-01T14:47:47.748Z,58.50
2022-12-01T14:50:54.107Z,58.48
2022-12-01T14:53:58.124Z,58.57
2022-12-01T14:57:07.417Z,58.64
2022-12-01T15:00:16.795Z,58.68
2022-12-01T15:03:19.357Z,58.81
2022-12-01T15:06:28.488Z,58.82
2022-12-01T15:09:34.014Z,59.35
2022-12-01T15:12:37.841Z,59.32
2022-12-01T15:15:52.125Z,59.11
2022-12-01T15:18:56.130Z,58.93
2022-12-01T15:22:03.983Z,58.71
2022-12-01T15:25:16.280Z,59.05
2022-12-01T15:28:23.073Z,59.16
2022-12-01T15:31:26.809Z,59.29
2022-12-01T15:34:34.266Z,59.09
2022-12-01T15:37:44.221Z,59.07
2022-12-01T15:44:34.283Z,59.09
2022-12-01T15:47:56.420Z,59.16
2022-12-01T15:51:17.789Z,58.89
2022-12-01T15:54:24.973Z,58.89
2022-12-01T15:57:28.468Z,58.84
2022-12-01T16:00:31.228Z,58.77
2022-12-01T16:04:05.789Z,58.73
2022-12-01T16:07:11.199Z,58.68
2022-12-01T16:10:36.058Z,58.66
2022-12-01T16:13:57.784Z,58.48
2022-12-01T16:17:01.620Z,58.40
2022-12-01T16:20:23.242Z,58.42
2022-12-01T16:23:27.617Z,58.55
2022-12-01T16:26:32.057Z,58.90
2022-12-01T16:29:55.262Z,59.12
2022-12-01T16:33:07.415Z,59.04
2022-12-01T16:36:10.463Z,55.23
2022-12-01T16:39:15.038Z,54.44
2022-12-01T16:42:21.691Z,60.97
2022-12-01T16:45:27.328Z,62.46
2022-12-01T16:48:32.160Z,61.91
2022-12-01T16:51:54.626Z,57.09
2022-12-01T16:54:59.477Z,60.53
2022-12-01T16:58:02.318Z,61.24
2022-12-01T17:01:07.059Z,56.52
2022-12-01T17:04:09.871Z,63.80
2022-12-01T17:07:12.653Z,65.63
2022-12-01T17:10:15.125Z,62.20
2022-12-01T17:13:20.063Z,62.35
2022-12-01T17:16:22.360Z,62.99
2022-12-01T17:19:25.234Z,59.58
2022-12-01T17:22:27.538Z,58.12
2022-12-01T17:25:30.454Z,60.96
2022-12-01T17:28:33.129Z,62.43
2022-12-01T17:31:36.273Z,63.42
2022-12-01T17:34:39.063Z,64.54
2022-12-01T17:37:42.086Z,66.29
2022-12-01T17:40:44.141Z,65.33
2022-12-01T17:43:47.018Z,67.14
2022-12-01T17:46:49.191Z,66.77
2022-12-01T17:49:51.727Z,67.13
2022-12-01T17:52:53.874Z,65.96
2022-12-01T17:55:56.375Z,65.12
2022-12-01T17:58:59.293Z,63.75
2022-12-01T18:02:02.133Z,62.60
2022-12-01T18:05:04.835Z,60.68
2022-12-01T18:08:07.734Z,62.42
2022-12-01T18:11:16.094Z,65.53
2022-12-01T18:14:18.714Z,69.18
2022-12-01T18:17:20.833Z,68.93
2022-12-01T18:20:23.350Z,66.57
2022-12-01T18:23:26.004Z,65.23
2022-12-01T18:26:32.135Z,63.82
2022-12-01T18:29:35.282Z,64.63
2022-12-01T18:32:38.207Z,64.81
2022-12-01T18:35:44.678Z,63.51
2022-12-01T18:38:48.733Z,62.48
2022-12-01T18:41:51.198Z,61.85
2022-12-01T18:44:54.759Z,61.83
2022-12-01T18:47:56.866Z,61.50
2022-12-01T18:51:07.907Z,61.22
2022-12-01T18:54:13.753Z,60.87
2022-12-01T18:57:16.474Z,60.73
2022-12-01T19:00:19.825Z,60.59
2022-12-01T19:03:22.335Z,60.49
2022-12-01T19:06:25.811Z,60.34
2022-12-01T19:09:29.555Z,60.27
2022-12-01T19:12:36.411Z,60.16
2022-12-01T19:15:42.045Z,60.21
2022-12-01T19:18:44.741Z,60.10
2022-12-01T19:21:47.368Z,60.16
2022-12-01T19:24:50.869Z,60.08
2022-12-01T19:27:53.414Z,60.13
2022-12-01T19:30:56.014Z,60.14
2022-12-01T19:33:59.195Z,60.11
2022-12-01T19:37:01.727Z,60.06
2022-12-01T19:40:05.036Z,60.15
2022-12-01T19:43:07.170Z,60.14
2022-12-01T19:46:13.291Z,60.29
2022-12-01T19:49:15.414Z,60.02
2022-12-01T19:52:18.064Z,59.92
2022-12-01T19:55:20.124Z,60.18
2022-12-01T19:58:25.798Z,63.12
2022-12-01T20:01:29.112Z,61.01
2022-12-01T20:04:31.975Z,60.50
2022-12-01T20:07:34.225Z,60.65
2022-12-01T20:10:38.421Z,61.04
2022-12-01T20:13:44.984Z,61.55
2022-12-01T20:16:49.277Z,61.74
2022-12-01T20:19:52.379Z,61.52
2022-12-01T20:22:55.743Z,61.45
2022-12-01T20:26:03.742Z,60.93
2022-12-01T20:29:09.695Z,60.79
2022-12-01T20:32:11.746Z,60.69
2022-12-01T20:35:15.876Z,60.61
2022-12-01T20:38:25.837Z,60.61
2022-12-01T20:41:33.663Z,60.61
2022-12-01T20:44:37.171Z,60.60
2022-12-01T20:47:44.216Z,60.27
2022-12-01T20:50:47.199Z,60.69
2022-12-01T20:54:12.351Z,59.69
2022-12-01T20:57:13.032Z,61.27
2022-12-01T21:00:17.411Z,61.48
2022-12-01T21:03:19.606Z,61.28
2022-12-01T21:06:23.051Z,61.37
2022-12-01T21:09:26.598Z,61.00
2022-12-01T21:12:48.453Z,61.03
2022-12-01T21:16:01.669Z,60.83
2022-12-01T21:19:17.085Z,60.56
2022-12-01T21:22:22.388Z,60.99
2022-12-01T21:25:25.757Z,60.90
2022-12-01T21:28:27.954Z,60.86
2022-12-01T21:31:32.557Z,60.43
2022-12-01T21:34:35.958Z,60.25
2022-12-01T21:37:39.755Z,59.96
2022-12-01T21:40:46.997Z,59.98
2022-12-01T21:43:49.719Z,60.08
2022-12-01T21:46:59.271Z,59.99
2022-12-01T21:50:21.979Z,60.37
2022-12-01T21:53:34.152Z,60.13
2022-12-01T21:56:40.645Z,60.29
2022-12-01T21:59:43.242Z,60.58
2022-12-01T22:02:51.855Z,60.93
2022-12-01T22:09:35.274Z,59.36
2022-12-01T22:12:42.560Z,60.85
2022-12-01T22:15:45.817Z,60.80
2022-12-01T22:19:00.414Z,60.88
2022-12-01T22:22:09.391Z,60.68
2022-12-01T22:25:30.287Z,60.15
2022-12-01T22:28:33.042Z,60.14
2022-12-01T22:31:35.349Z,60.38
2022-12-01T22:34:53.443Z,60.78
2022-12-01T22:38:43.663Z,61.02
2022-12-01T22:41:46.084Z,60.18
2022-12-01T22:44:48.426Z,60.29
2022-12-01T22:47:56.369Z,59.59
2022-12-01T22:51:08.447Z,59.73
2022-12-01T22:54:15.096Z,60.58
2022-12-01T22:57:35.889Z,60.23
2022-12-01T23:00:39.492Z,56.65
2022-12-01T23:03:44.973Z,59.04
2022-12-01T23:07:13.090Z,61.23
2022-12-01T23:10:23.828Z,61.05
2022-12-01T23:13:28.742Z,61.02
2022-12-01T23:16:31.399Z,58.77
2022-12-01T23:19:37.946Z,61.90
2022-12-01T23:22:42.131Z,60.26
2022-12-01T23:25:46.986Z,59.91
2022-12-01T23:28:49.738Z,59.49
2022-12-01T23:31:52.717Z,59.08
2022-12-01T23:35:00.495Z,58.83
2022-12-01T23:38:03.421Z,57.85
2022-12-01T23:41:21.514Z,58.61
2022-12-01T23:44:41.324Z,59.59
2022-12-01T23:47:43.869Z,59.21
2022-12-01T23:50:49.757Z,58.82
2022-12-01T23:53:53.883Z,58.54
2022-12-01T23:57:03.748Z,58.66
